sensor_id;sensor_type;location;lat;lon;timestamp;pressure;altitude;pressure_sealevel;temperature;humidity
71573;BME280;59408;51.032;9.410;2023-04-29T00:00:15;98552.81;;;9.55;100.00
71573;BME280;59408;51.032;9.410;2023-04-29T00:02:41;98562.44;;;9.52;100.00
71573;BME280;59408;51.032;9.410;2023-04-29T00:05:08;98565.03;;;9.48;100.00
71573;BME280;59408;51.032;9.410;2023-04-29T00:07:36;98556.19;;;9.52;100.00
71573;BME280;59408;51.032;9.410;2023-04-29T00:10:03;98564.50;;;9.55;100.00
71573;BME280;59408;51.032;9.410;2023-04-29T00:12:29;98554.47;;;9.59;100.00
71573;BME280;59408;51.032;9.410;2023-04-29T00:14:58;98552.22;;;9.61;100.00
71573;BME280;59408;51.032;9.410;2023-04-29T00:17:24;98550.38;;;9.65;100.00
71573;BME280;59408;51.032;9.410;2023-04-29T00:19:51;98560.38;;;9.61;100.00
71573;BME280;59408;51.032;9.410;2023-04-29T00:22:18;98553.56;;;9.67;100.00
71573;BME280;59408;51.032;9.410;2023-04-29T00:24:44;98545.59;;;9.74;100.00
71573;BME280;59408;51.032;9.410;2023-04-29T00:27:11;98549.09;;;9.75;100.00
71573;BME280;59408;51.032;9.410;2023-04-29T00:29:38;98556.25;;;9.79;100.00
71573;BME280;59408;51.032;9.410;2023-04-29T00:32:06;98555.91;;;9.81;100.00
71573;BME280;59408;51.032;9.410;2023-04-29T00:34:32;98558.72;;;9.84;100.00
71573;BME280;59408;51.032;9.410;2023-04-29T00:36:59;98559.63;;;9.88;100.00
71573;BME280;59408;51.032;9.410;2023-04-29T00:39:26;98558.56;;;9.93;100.00
71573;BME280;59408;51.032;9.410;2023-04-29T00:41:52;98560.81;;;10.03;100.00
71573;BME280;59408;51.032;9.410;2023-04-29T00:44:19;98562.97;;;10.10;100.00
71573;BME280;59408;51.032;9.410;2023-04-29T00:46:46;98574.22;;;10.08;100.00
71573;BME280;59408;51.032;9.410;2023-04-29T00:49:14;98566.81;;;10.09;100.00
71573;BME280;59408;51.032;9.410;2023-04-29T00:51:41;98562.50;;;10.08;100.00
71573;BME280;59408;51.032;9.410;2023-04-29T00:54:08;98577.28;;;10.07;100.00
71573;BME280;59408;51.032;9.410;2023-04-29T00:56:36;98571.38;;;10.05;100.00
71573;BME280;59408;51.032;9.410;2023-04-29T00:59:05;98572.84;;;10.02;100.00
71573;BME280;59408;51.032;9.410;2023-04-29T01:01:32;98567.66;;;9.97;100.00
71573;BME280;59408;51.032;9.410;2023-04-29T01:03:59;98568.00;;;9.96;100.00
71573;BME280;59408;51.032;9.410;2023-04-29T01:06:34;98571.78;;;9.91;100.00
71573;BME280;59408;51.032;9.410;2023-04-29T01:09:14;98578.34;;;9.90;100.00
71573;BME280;59408;51.032;9.410;2023-04-29T01:11:51;98573.59;;;9.87;100.00
71573;BME280;59408;51.032;9.410;2023-04-29T01:14:19;98577.09;;;9.87;100.00
71573;BME280;59408;51.032;9.410;2023-04-29T01:16:50;98570.53;;;9.88;100.00
71573;BME280;59408;51.032;9.410;2023-04-29T01:19:26;98575.53;;;9.86;100.00
71573;BME280;59408;51.032;9.410;2023-04-29T01:22:03;98578.25;;;9.86;100.00
71573;BME280;59408;51.032;9.410;2023-04-29T01:24:31;98574.28;;;9.84;100.00
71573;BME280;59408;51.032;9.410;2023-04-29T01:27:07;98575.78;;;9.81;100.00
71573;BME280;59408;51.032;9.410;2023-04-29T01:29:43;98570.56;;;9.76;100.00
71573;BME280;59408;51.032;9.410;2023-04-29T01:32:14;98582.56;;;9.75;100.00
71573;BME280;59408;51.032;9.410;2023-04-29T01:34:48;98580.56;;;9.72;100.00
71573;BME280;59408;51.032;9.410;2023-04-29T01:37:18;98581.25;;;9.69;100.00
71573;BME280;59408;51.032;9.410;2023-04-29T01:39:55;98591.22;;;9.65;100.00
71573;BME280;59408;51.032;9.410;2023-04-29T01:42:27;98576.72;;;9.61;100.00
71573;BME280;59408;51.032;9.410;2023-04-29T01:44:56;98587.63;;;9.61;100.00
71573;BME280;59408;51.032;9.410;2023-04-29T01:47:27;98586.38;;;9.59;100.00
71573;BME280;59408;51.032;9.410;2023-04-29T01:49:54;98579.00;;;9.59;100.00
71573;BME280;59408;51.032;9.410;2023-04-29T01:52:21;98584.09;;;9.61;100.00
71573;BME280;59408;51.032;9.410;2023-04-29T01:54:48;98583.97;;;9.57;100.00
71573;BME280;59408;51.032;9.410;2023-04-29T01:57:16;98583.63;;;9.59;100.00
71573;BME280;59408;51.032;9.410;2023-04-29T01:59:42;98585.22;;;9.60;100.00
71573;BME280;59408;51.032;9.410;2023-04-29T02:02:09;98583.31;;;9.60;100.00
71573;BME280;59408;51.032;9.410;2023-04-29T02:04:35;98588.06;;;9.63;100.00
71573;BME280;59408;51.032;9.410;2023-04-29T02:07:02;98590.00;;;9.63;100.00
71573;BME280;59408;51.032;9.410;2023-04-29T02:09:29;98582.63;;;9.63;100.00
71573;BME280;59408;51.032;9.410;2023-04-29T02:11:56;98590.66;;;9.60;100.00
71573;BME280;59408;51.032;9.410;2023-04-29T02:14:24;98590.22;;;9.58;100.00
71573;BME280;59408;51.032;9.410;2023-04-29T02:16:50;98585.81;;;9.53;100.00
71573;BME280;59408;51.032;9.410;2023-04-29T02:19:17;98586.50;;;9.50;100.00
71573;BME280;59408;51.032;9.410;2023-04-29T02:21:44;98593.88;;;9.49;100.00
71573;BME280;59408;51.032;9.410;2023-04-29T02:24:10;98610.19;;;9.49;100.00
71573;BME280;59408;51.032;9.410;2023-04-29T02:26:37;98609.75;;;9.47;100.00
71573;BME280;59408;51.032;9.410;2023-04-29T02:29:03;98604.66;;;9.46;100.00
71573;BME280;59408;51.032;9.410;2023-04-29T02:31:31;98608.84;;;9.43;100.00
71573;BME280;59408;51.032;9.410;2023-04-29T02:33:58;98607.94;;;9.39;100.00
71573;BME280;59408;51.032;9.410;2023-04-29T02:36:25;98619.19;;;9.38;100.00
71573;BME280;59408;51.032;9.410;2023-04-29T02:38:51;98631.22;;;9.37;100.00
71573;BME280;59408;51.032;9.410;2023-04-29T02:41:18;98625.31;;;9.35;100.00
71573;BME280;59408;51.032;9.410;2023-04-29T02:43:45;98622.56;;;9.35;100.00
71573;BME280;59408;51.032;9.410;2023-04-29T02:46:11;98628.03;;;9.35;100.00
71573;BME280;59408;51.032;9.410;2023-04-29T02:48:39;98627.69;;;9.36;100.00
71573;BME280;59408;51.032;9.410;2023-04-29T02:51:06;98631.22;;;9.37;100.00
71573;BME280;59408;51.032;9.410;2023-04-29T02:53:33;98624.50;;;9.34;100.00
71573;BME280;59408;51.032;9.410;2023-04-29T02:55:59;98624.03;;;9.32;100.00
71573;BME280;59408;51.032;9.410;2023-04-29T02:58:26;98621.66;;;9.31;100.00
71573;BME280;59408;51.032;9.410;2023-04-29T03:00:53;98633.69;;;9.30;100.00
71573;BME280;59408;51.032;9.410;2023-04-29T03:03:19;98631.66;;;9.27;100.00
71573;BME280;59408;51.032;9.410;2023-04-29T03:05:48;98632.78;;;9.26;100.00
71573;BME280;59408;51.032;9.410;2023-04-29T03:08:14;98630.41;;;9.24;100.00
71573;BME280;59408;51.032;9.410;2023-04-29T03:10:41;98632.31;;;9.24;100.00
71573;BME280;59408;51.032;9.410;2023-04-29T03:13:08;98630.41;;;9.24;100.00
71573;BME280;59408;51.032;9.410;2023-04-29T03:15:34;98628.00;;;9.23;100.00
71573;BME280;59408;51.032;9.410;2023-04-29T03:18:01;98634.16;;;9.20;100.00
71573;BME280;59408;51.032;9.410;2023-04-29T03:20:27;98626.31;;;9.18;100.00
71573;BME280;59408;51.032;9.410;2023-04-29T03:22:55;98629.03;;;9.18;100.00
71573;BME280;59408;51.032;9.410;2023-04-29T03:25:22;98625.84;;;9.16;100.00
71573;BME280;59408;51.032;9.410;2023-04-29T03:27:49;98628.88;;;9.14;100.00
71573;BME280;59408;51.032;9.410;2023-04-29T03:30:15;98628.44;;;9.12;100.00
71573;BME280;59408;51.032;9.410;2023-04-29T03:32:42;98625.69;;;9.12;100.00
71573;BME280;59408;51.032;9.410;2023-04-29T03:35:09;98627.63;;;9.12;100.00
71573;BME280;59408;51.032;9.410;2023-04-29T03:37:35;98630.72;;;9.10;100.00
71573;BME280;59408;51.032;9.410;2023-04-29T03:40:04;98629.91;;;9.10;100.00
71573;BME280;59408;51.032;9.410;2023-04-29T03:42:31;98630.59;;;9.07;100.00
71573;BME280;59408;51.032;9.410;2023-04-29T03:44:58;98634.75;;;9.04;100.00
71573;BME280;59408;51.032;9.410;2023-04-29T03:47:24;98630.47;;;9.03;100.00
71573;BME280;59408;51.032;9.410;2023-04-29T03:49:51;98633.50;;;9.02;100.00
71573;BME280;59408;51.032;9.410;2023-04-29T03:52:18;98634.31;;;9.02;100.00
71573;BME280;59408;51.032;9.410;2023-04-29T03:54:44;98630.03;;;9.01;100.00
71573;BME280;59408;51.032;9.410;2023-04-29T03:57:13;98638.50;;;9.00;100.00
71573;BME280;59408;51.032;9.410;2023-04-29T03:59:39;98644.38;;;9.02;100.00
71573;BME280;59408;51.032;9.410;2023-04-29T04:02:06;98639.97;;;8.97;100.00
71573;BME280;59408;51.032;9.410;2023-04-29T04:04:32;98650.84;;;8.97;100.00
71573;BME280;59408;51.032;9.410;2023-04-29T04:06:59;98657.09;;;8.98;100.00
71573;BME280;59408;51.032;9.410;2023-04-29T04:09:26;98652.78;;;8.97;100.00
71573;BME280;59408;51.032;9.410;2023-04-29T04:11:52;98649.28;;;8.96;100.00
71573;BME280;59408;51.032;9.410;2023-04-29T04:14:20;98658.56;;;8.95;100.00
71573;BME280;59408;51.032;9.410;2023-04-29T04:16:47;98662.88;;;8.96;100.00
71573;BME280;59408;51.032;9.410;2023-04-29T04:19:14;98659.69;;;8.94;100.00
71573;BME280;59408;51.032;9.410;2023-04-29T04:21:40;98662.06;;;8.96;100.00
71573;BME280;59408;51.032;9.410;2023-04-29T04:24:07;98668.31;;;8.96;100.00
71573;BME280;59408;51.032;9.410;2023-04-29T04:26:33;98671.50;;;8.98;100.00
71573;BME280;59408;51.032;9.410;2023-04-29T04:29:00;98676.13;;;8.98;100.00
71573;BME280;59408;51.032;9.410;2023-04-29T04:31:28;98670.38;;;8.99;100.00
71573;BME280;59408;51.032;9.410;2023-04-29T04:33:55;98677.41;;;9.00;100.00
71573;BME280;59408;51.032;9.410;2023-04-29T04:36:22;98684.44;;;9.01;100.00
71573;BME280;59408;51.032;9.410;2023-04-29T04:38:48;98686.00;;;9.02;100.00
71573;BME280;59408;51.032;9.410;2023-04-29T04:41:15;98677.03;;;9.02;100.00
71573;BME280;59408;51.032;9.410;2023-04-29T04:43:41;98684.88;;;9.03;100.00
71573;BME280;59408;51.032;9.410;2023-04-29T04:46:09;98691.09;;;9.04;100.00
71573;BME280;59408;51.032;9.410;2023-04-29T04:48:37;98693.03;;;9.03;100.00
71573;BME280;59408;51.032;9.410;2023-04-29T04:51:07;98704.38;;;9.05;100.00
71573;BME280;59408;51.032;9.410;2023-04-29T04:53:33;98707.88;;;9.06;100.00
71573;BME280;59408;51.032;9.410;2023-04-29T04:56:00;98720.38;;;9.07;100.00
71573;BME280;59408;51.032;9.410;2023-04-29T04:58:26;98714.13;;;9.06;100.00
71573;BME280;59408;51.032;9.410;2023-04-29T05:00:53;98720.03;;;9.08;100.00
71573;BME280;59408;51.032;9.410;2023-04-29T05:03:20;98721.63;;;9.09;100.00
71573;BME280;59408;51.032;9.410;2023-04-29T05:05:53;98729.00;;;9.09;100.00
71573;BME280;59408;51.032;9.410;2023-04-29T05:08:19;98725.94;;;9.10;100.00
71573;BME280;59408;51.032;9.410;2023-04-29T05:10:46;98732.16;;;9.11;100.00
71573;BME280;59408;51.032;9.410;2023-04-29T05:13:12;98731.81;;;9.12;100.00
71573;BME280;59408;51.032;9.410;2023-04-29T05:15:39;98735.00;;;9.14;100.00
71573;BME280;59408;51.032;9.410;2023-04-29T05:18:06;98740.44;;;9.14;100.00
71573;BME280;59408;51.032;9.410;2023-04-29T05:20:32;98736.13;;;9.13;100.00
71573;BME280;59408;51.032;9.410;2023-04-29T05:23:00;98742.03;;;9.16;100.00
71573;BME280;59408;51.032;9.410;2023-04-29T05:25:27;98748.59;;;9.14;100.00
71573;BME280;59408;51.032;9.410;2023-04-29T05:27:54;98749.41;;;9.15;100.00
71573;BME280;59408;51.032;9.410;2023-04-29T05:30:20;98748.59;;;9.14;100.00
71573;BME280;59408;51.032;9.410;2023-04-29T05:32:47;98760.63;;;9.13;100.00
71573;BME280;59408;51.032;9.410;2023-04-29T05:35:14;98765.97;;;9.10;100.00
71573;BME280;59408;51.032;9.410;2023-04-29T05:37:41;98758.22;;;9.12;100.00
71573;BME280;59408;51.032;9.410;2023-04-29T05:40:09;98765.25;;;9.13;100.00
71573;BME280;59408;51.032;9.410;2023-04-29T05:42:36;98769.13;;;9.12;100.00
71573;BME280;59408;51.032;9.410;2023-04-29T05:45:03;98768.31;;;9.11;100.00
71573;BME280;59408;51.032;9.410;2023-04-29T05:47:30;98782.38;;;9.13;100.00
71573;BME280;59408;51.032;9.410;2023-04-29T05:49:56;98777.63;;;9.10;100.00
71573;BME280;59408;51.032;9.410;2023-04-29T05:52:23;98784.63;;;9.11;100.00
71573;BME280;59408;51.032;9.410;2023-04-29T05:54:50;98789.66;;;9.09;100.00
71573;BME280;59408;51.032;9.410;2023-04-29T05:57:17;98792.47;;;9.13;100.00
71573;BME280;59408;51.032;9.410;2023-04-29T05:59:44;98786.94;;;9.09;100.00
71573;BME280;59408;51.032;9.410;2023-04-29T06:02:11;98788.38;;;9.07;100.00
71573;BME280;59408;51.032;9.410;2023-04-29T06:04:37;98787.03;;;9.13;100.00
71573;BME280;59408;51.032;9.410;2023-04-29T06:07:04;98789.44;;;9.14;100.00
71573;BME280;59408;51.032;9.410;2023-04-29T06:09:31;98799.00;;;9.21;100.00
71573;BME280;59408;51.032;9.410;2023-04-29T06:11:57;98792.09;;;9.23;100.00
71573;BME280;59408;51.032;9.410;2023-04-29T06:14:25;98808.88;;;9.25;100.00
71573;BME280;59408;51.032;9.410;2023-04-29T06:16:52;98815.59;;;9.28;100.00
71573;BME280;59408;51.032;9.410;2023-04-29T06:19:19;98813.66;;;9.28;100.00
71573;BME280;59408;51.032;9.410;2023-04-29T06:21:45;98817.28;;;9.32;100.00
71573;BME280;59408;51.032;9.410;2023-04-29T06:24:12;98826.25;;;9.33;100.00
71573;BME280;59408;51.032;9.410;2023-04-29T06:26:38;98830.34;;;9.39;100.00
71573;BME280;59408;51.032;9.410;2023-04-29T06:29:05;98835.13;;;9.42;100.00
71573;BME280;59408;51.032;9.410;2023-04-29T06:31:33;98837.84;;;9.42;100.00
71573;BME280;59408;51.032;9.410;2023-04-29T06:33:59;98846.03;;;9.42;100.00
71573;BME280;59408;51.032;9.410;2023-04-29T06:36:26;98843.28;;;9.42;100.00
71573;BME280;59408;51.032;9.410;2023-04-29T06:38:53;98849.06;;;9.40;100.00
71573;BME280;59408;51.032;9.410;2023-04-29T06:41:20;98842.97;;;9.43;100.00
71573;BME280;59408;51.032;9.410;2023-04-29T06:43:46;98851.59;;;9.45;100.00
71573;BME280;59408;51.032;9.410;2023-04-29T06:46:14;98848.19;;;9.48;100.00
71573;BME280;59408;51.032;9.410;2023-04-29T06:48:42;98855.22;;;9.49;100.00
71573;BME280;59408;51.032;9.410;2023-04-29T06:51:09;98854.09;;;9.50;100.00
71573;BME280;59408;51.032;9.410;2023-04-29T06:53:35;98858.63;;;9.46;100.00
71573;BME280;59408;51.032;9.410;2023-04-29T06:56:02;98865.22;;;9.45;100.00
71573;BME280;59408;51.032;9.410;2023-04-29T06:58:29;98862.69;;;9.40;100.00
71573;BME280;59408;51.032;9.410;2023-04-29T07:00:56;98871.31;;;9.42;100.00
71573;BME280;59408;51.032;9.410;2023-04-29T07:03:22;98870.84;;;9.40;100.00
71573;BME280;59408;51.032;9.410;2023-04-29T07:05:50;98876.03;;;9.33;100.00
71573;BME280;59408;51.032;9.410;2023-04-29T07:08:17;98879.09;;;9.32;100.00
71573;BME280;59408;51.032;9.410;2023-04-29T07:10:49;98882.16;;;9.30;100.00
71573;BME280;59408;51.032;9.410;2023-04-29T07:13:18;98882.38;;;9.25;100.00
71573;BME280;59408;51.032;9.410;2023-04-29T07:15:45;98889.88;;;9.28;100.00
71573;BME280;59408;51.032;9.410;2023-04-29T07:18:11;98895.97;;;9.25;100.00
71573;BME280;59408;51.032;9.410;2023-04-29T07:20:38;98894.63;;;9.31;100.00
71573;BME280;59408;51.032;9.410;2023-04-29T07:23:06;98903.41;;;9.37;100.00
71573;BME280;59408;51.032;9.410;2023-04-29T07:25:32;98908.41;;;9.47;100.00
71573;BME280;59408;51.032;9.410;2023-04-29T07:27:59;98908.78;;;9.58;100.00
71573;BME280;59408;51.032;9.410;2023-04-29T07:30:26;98923.53;;;9.57;100.00
71573;BME280;59408;51.032;9.410;2023-04-29T07:32:52;98921.28;;;9.59;100.00
71573;BME280;59408;51.032;9.410;2023-04-29T07:35:19;98933.53;;;9.53;100.00
71573;BME280;59408;51.032;9.410;2023-04-29T07:37:45;98939.84;;;9.44;100.00
71573;BME280;59408;51.032;9.410;2023-04-29T07:40:13;98935.06;;;9.41;100.00
71573;BME280;59408;51.032;9.410;2023-04-29T07:42:40;98940.56;;;9.33;100.00
71573;BME280;59408;51.032;9.410;2023-04-29T07:45:07;98946.34;;;9.31;100.00
71573;BME280;59408;51.032;9.410;2023-04-29T07:47:34;98954.66;;;9.35;100.00
71573;BME280;59408;51.032;9.410;2023-04-29T07:50:01;98949.66;;;9.16;100.00
71573;BME280;59408;51.032;9.410;2023-04-29T07:52:28;98953.31;;;9.20;100.00
71573;BME280;59408;51.032;9.410;2023-04-29T07:54:54;98962.44;;;9.16;100.00
71573;BME280;59408;51.032;9.410;2023-04-29T07:57:22;98959.94;;;9.10;100.00
71573;BME280;59408;51.032;9.410;2023-04-29T07:59:50;98961.31;;;9.17;100.00
71573;BME280;59408;51.032;9.410;2023-04-29T08:02:17;98959.22;;;9.22;100.00
71573;BME280;59408;51.032;9.410;2023-04-29T08:04:43;98961.75;;;9.27;100.00
71573;BME280;59408;51.032;9.410;2023-04-29T08:07:11;98965.78;;;9.21;100.00
71573;BME280;59408;51.032;9.410;2023-04-29T08:09:37;98965.47;;;9.23;100.00
71573;BME280;59408;51.032;9.410;2023-04-29T08:12:04;98974.44;;;9.23;100.00
71573;BME280;59408;51.032;9.410;2023-04-29T08:14:32;98981.19;;;9.17;100.00
71573;BME280;59408;51.032;9.410;2023-04-29T08:16:59;98985.34;;;9.14;100.00
71573;BME280;59408;51.032;9.410;2023-04-29T08:19:25;98986.31;;;9.19;100.00
71573;BME280;59408;51.032;9.410;2023-04-29T08:21:52;98988.19;;;9.27;100.00
71573;BME280;59408;51.032;9.410;2023-04-29T08:24:18;98991.63;;;9.36;100.00
71573;BME280;59408;51.032;9.410;2023-04-29T08:26:45;98988.44;;;9.34;100.00
71573;BME280;59408;51.032;9.410;2023-04-29T08:29:12;98990.38;;;9.33;100.00
71573;BME280;59408;51.032;9.410;2023-04-29T08:31:40;98994.09;;;9.29;100.00
71573;BME280;59408;51.032;9.410;2023-04-29T08:34:06;98994.44;;;9.27;100.00
71573;BME280;59408;51.032;9.410;2023-04-29T08:36:33;99005.81;;;9.21;100.00
71573;BME280;59408;51.032;9.410;2023-04-29T08:38:59;99005.81;;;9.21;100.00
71573;BME280;59408;51.032;9.410;2023-04-29T08:41:26;99011.88;;;9.26;100.00
71573;BME280;59408;51.032;9.410;2023-04-29T08:43:53;99018.88;;;9.36;100.00
71573;BME280;59408;51.032;9.410;2023-04-29T08:46:20;99015.66;;;9.34;100.00
71573;BME280;59408;51.032;9.410;2023-04-29T08:48:49;99014.06;;;9.33;100.00
71573;BME280;59408;51.032;9.410;2023-04-29T08:51:16;99016.72;;;9.41;100.00
71573;BME280;59408;51.032;9.410;2023-04-29T08:53:46;99016.63;;;9.38;100.00
71573;BME280;59408;51.032;9.410;2023-04-29T08:56:15;99021.19;;;9.46;100.00
71573;BME280;59408;51.032;9.410;2023-04-29T08:58:43;99023.97;;;9.58;100.00
71573;BME280;59408;51.032;9.410;2023-04-29T09:01:10;99021.25;;;9.58;100.00
71573;BME280;59408;51.032;9.410;2023-04-29T09:03:42;99023.16;;;9.58;100.00
71573;BME280;59408;51.032;9.410;2023-04-29T09:06:12;99031.41;;;9.70;100.00
71573;BME280;59408;51.032;9.410;2023-04-29T09:08:39;99029.19;;;9.84;100.00
71573;BME280;59408;51.032;9.410;2023-04-29T09:11:07;99035.25;;;9.90;100.00
71573;BME280;59408;51.032;9.410;2023-04-29T09:13:34;99033.19;;;9.86;100.00
71573;BME280;59408;51.032;9.410;2023-04-29T09:16:01;99026.59;;;10.08;100.00
71573;BME280;59408;51.032;9.410;2023-04-29T09:18:41;99034.91;;;10.24;100.00
71573;BME280;59408;51.032;9.410;2023-04-29T09:21:17;99040.88;;;10.05;100.00
71573;BME280;59408;51.032;9.410;2023-04-29T09:23:48;99040.53;;;10.07;100.00
71573;BME280;59408;51.032;9.410;2023-04-29T09:26:16;99045.59;;;10.29;100.00
71573;BME280;59408;51.032;9.410;2023-04-29T09:28:42;99048.88;;;10.22;100.00
71573;BME280;59408;51.032;9.410;2023-04-29T09:31:09;99052.22;;;10.40;100.00
71573;BME280;59408;51.032;9.410;2023-04-29T09:33:49;99051.38;;;10.15;100.00
71573;BME280;59408;51.032;9.410;2023-04-29T09:36:35;99058.50;;;10.08;100.00
71573;BME280;59408;51.032;9.410;2023-04-29T09:39:02;99060.59;;;10.02;100.00
71573;BME280;59408;51.032;9.410;2023-04-29T09:41:29;99060.75;;;10.06;100.00
71573;BME280;59408;51.032;9.410;2023-04-29T09:44:02;99064.28;;;10.06;100.00
71573;BME280;59408;51.032;9.410;2023-04-29T09:46:28;99072.44;;;10.06;100.00
71573;BME280;59408;51.032;9.410;2023-04-29T09:48:55;99068.59;;;10.07;100.00
71573;BME280;59408;51.032;9.410;2023-04-29T09:51:22;99076.16;;;10.02;100.00
71573;BME280;59408;51.032;9.410;2023-04-29T09:53:50;99075.09;;;9.94;100.00
71573;BME280;59408;51.032;9.410;2023-04-29T09:56:16;99087.00;;;10.10;100.00
71573;BME280;59408;51.032;9.410;2023-04-29T09:58:43;99083.34;;;10.06;100.00
71573;BME280;59408;51.032;9.410;2023-04-29T10:01:10;99082.63;;;10.18;100.00
71573;BME280;59408;51.032;9.410;2023-04-29T10:03:37;99092.03;;;10.20;100.00
71573;BME280;59408;51.032;9.410;2023-04-29T10:06:05;99091.41;;;10.36;100.00
71573;BME280;59408;51.032;9.410;2023-04-29T10:08:33;99095.75;;;10.37;100.00
71573;BME280;59408;51.032;9.410;2023-04-29T10:11:02;99099.53;;;10.23;100.00
71573;BME280;59408;51.032;9.410;2023-04-29T10:13:30;99090.38;;;10.28;100.00
71573;BME280;59408;51.032;9.410;2023-04-29T10:16:00;99097.44;;;10.41;100.00
71573;BME280;59408;51.032;9.410;2023-04-29T10:18:35;99097.38;;;10.50;100.00
71573;BME280;59408;51.032;9.410;2023-04-29T10:21:02;99101.22;;;10.49;100.00
71573;BME280;59408;51.032;9.410;2023-04-29T10:23:32;99098.28;;;10.87;100.00
71573;BME280;59408;51.032;9.410;2023-04-29T10:26:01;99097.38;;;10.95;100.00
71573;BME280;59408;51.032;9.410;2023-04-29T10:28:30;99091.16;;;11.19;97.20
71573;BME280;59408;51.032;9.410;2023-04-29T10:30:58;99093.53;;;11.45;97.26
71573;BME280;59408;51.032;9.410;2023-04-29T10:33:30;99108.53;;;11.63;94.48
71573;BME280;59408;51.032;9.410;2023-04-29T10:35:57;99101.09;;;11.75;93.41
71573;BME280;59408;51.032;9.410;2023-04-29T10:38:27;99110.00;;;11.72;92.63
71573;BME280;59408;51.032;9.410;2023-04-29T10:40:55;99114.13;;;11.54;90.72
71573;BME280;59408;51.032;9.410;2023-04-29T10:43:25;99108.53;;;11.63;92.26
71573;BME280;59408;51.032;9.410;2023-04-29T10:46:16;99102.84;;;11.31;92.83
71573;BME280;59408;51.032;9.410;2023-04-29T10:48:43;99110.16;;;11.27;93.99
71573;BME280;59408;51.032;9.410;2023-04-29T10:51:10;99106.03;;;11.09;93.52
71573;BME280;59408;51.032;9.410;2023-04-29T10:53:57;99106.59;;;11.15;95.70
71573;BME280;59408;51.032;9.410;2023-04-29T10:56:34;99106.84;;;11.34;95.79
71573;BME280;59408;51.032;9.410;2023-04-29T10:59:03;99110.94;;;11.16;94.79
71573;BME280;59408;51.032;9.410;2023-04-29T11:01:40;99118.19;;;10.99;93.81
71573;BME280;59408;51.032;9.410;2023-04-29T11:04:07;99118.16;;;10.87;95.50
71573;BME280;59408;51.032;9.410;2023-04-29T11:06:39;99114.75;;;10.78;95.69
71573;BME280;59408;51.032;9.410;2023-04-29T11:09:11;99120.56;;;10.89;98.52
71573;BME280;59408;51.032;9.410;2023-04-29T11:12:00;99124.91;;;10.90;95.89
71573;BME280;59408;51.032;9.410;2023-04-29T11:14:30;99120.34;;;10.82;95.61
71573;BME280;59408;51.032;9.410;2023-04-29T11:16:59;99118.41;;;10.94;96.00
71573;BME280;59408;51.032;9.410;2023-04-29T11:19:30;99128.78;;;11.01;93.73
71573;BME280;59408;51.032;9.410;2023-04-29T11:22:12;99124.81;;;11.11;95.23
71573;BME280;59408;51.032;9.410;2023-04-29T11:24:49;99132.19;;;11.22;94.20
71573;BME280;59408;51.032;9.410;2023-04-29T11:27:17;99128.31;;;11.11;92.92
71573;BME280;59408;51.032;9.410;2023-04-29T11:29:46;99134.00;;;11.06;90.89
71573;BME280;59408;51.032;9.410;2023-04-29T11:32:12;99133.34;;;11.09;92.13
71573;BME280;59408;51.032;9.410;2023-04-29T11:34:39;99134.56;;;11.12;94.51
71573;BME280;59408;51.032;9.410;2023-04-29T11:37:06;99133.78;;;11.11;91.06
71573;BME280;59408;51.032;9.410;2023-04-29T11:39:33;99141.97;;;11.11;89.55
71573;BME280;59408;51.032;9.410;2023-04-29T11:42:04;99144.03;;;11.14;93.24
71573;BME280;59408;51.032;9.410;2023-04-29T11:44:32;99148.91;;;11.21;92.96
71573;BME280;59408;51.032;9.410;2023-04-29T11:47:04;99154.38;;;11.09;91.08
71573;BME280;59408;51.032;9.410;2023-04-29T11:49:30;99153.44;;;11.05;91.46
71573;BME280;59408;51.032;9.410;2023-04-29T11:51:57;99162.97;;;10.86;90.60
71573;BME280;59408;51.032;9.410;2023-04-29T11:54:24;99166.44;;;10.75;90.50
71573;BME280;59408;51.032;9.410;2023-04-29T11:56:52;99169.50;;;10.73;92.89
71573;BME280;59408;51.032;9.410;2023-04-29T11:59:19;99165.66;;;10.74;92.96
71573;BME280;59408;51.032;9.410;2023-04-29T12:01:45;99159.44;;;10.86;93.05
71573;BME280;59408;51.032;9.410;2023-04-29T12:04:13;99170.69;;;10.84;91.70
71573;BME280;59408;51.032;9.410;2023-04-29T12:06:41;99171.03;;;10.83;91.55
71573;BME280;59408;51.032;9.410;2023-04-29T12:09:07;99171.63;;;10.88;90.61
71573;BME280;59408;51.032;9.410;2023-04-29T12:11:35;99177.13;;;11.01;90.37
71573;BME280;59408;51.032;9.410;2023-04-29T12:14:02;99177.91;;;11.01;89.65
71573;BME280;59408;51.032;9.410;2023-04-29T12:16:29;99175.75;;;11.07;89.21
71573;BME280;59408;51.032;9.410;2023-04-29T12:18:57;99177.25;;;11.16;90.47
71573;BME280;59408;51.032;9.410;2023-04-29T12:21:25;99178.16;;;11.20;88.73
71573;BME280;59408;51.032;9.410;2023-04-29T12:23:52;99183.63;;;11.32;88.61
71573;BME280;59408;51.032;9.410;2023-04-29T12:26:19;99175.22;;;11.25;86.96
71573;BME280;59408;51.032;9.410;2023-04-29T12:28:47;99177.63;;;11.27;87.12
71573;BME280;59408;51.032;9.410;2023-04-29T12:31:14;99184.66;;;11.28;87.43
71573;BME280;59408;51.032;9.410;2023-04-29T12:33:42;99185.06;;;11.06;87.47
71573;BME280;59408;51.032;9.410;2023-04-29T12:36:15;99178.94;;;11.09;88.14
71573;BME280;59408;51.032;9.410;2023-04-29T12:38:44;99180.75;;;11.05;87.96
71573;BME280;59408;51.032;9.410;2023-04-29T12:41:11;99191.34;;;11.06;87.85
71573;BME280;59408;51.032;9.410;2023-04-29T12:43:38;99183.50;;;11.17;90.10
71573;BME280;59408;51.032;9.410;2023-04-29T12:46:06;99184.75;;;11.07;88.11
71573;BME280;59408;51.032;9.410;2023-04-29T12:48:35;99192.16;;;11.19;88.27
71573;BME280;59408;51.032;9.410;2023-04-29T12:51:03;99189.44;;;11.19;85.45
71573;BME280;59408;51.032;9.410;2023-04-29T12:53:30;99190.69;;;11.33;87.72
71573;BME280;59408;51.032;9.410;2023-04-29T12:55:58;99197.66;;;11.43;86.57
71573;BME280;59408;51.032;9.410;2023-04-29T12:58:27;99195.47;;;11.49;85.90
71573;BME280;59408;51.032;9.410;2023-04-29T13:00:54;99196.63;;;11.48;85.34
71573;BME280;59408;51.032;9.410;2023-04-29T13:03:21;99199.84;;;11.74;84.97